English Bay, Alaska
Current Conditions -  °F | °C
As of 11:53 AM on Thursday 20 Nov 2014 (Local Time) from PAHO Reporting Station
Light Rain Light Rain  
Wind Chill: 42°   Ceiling: 3900
Heat Index: 48°   Visibility: 10mi
Dew Point: 37°   Wind: 17mph
Humidity: 66%   Direction: 90°E
Pressure: 29.17"   Gusts: 28mph
Location:  59.7153°N, 150.773°W
Report Text: PAHO 202053Z 09015G24KT 10SM -RA OVC039 09/03 A2917 RMK AO2 SLP877 P0003 60010 T00890028 58023 $
Loading
Personal Weather Stations






























Interactive Weather Map New forecast layout! Learn more

10-Day Weather Forecast

Advertisements
Track Severe Weather on mobile